sensor_id;sensor_type;location;lat;lon;timestamp;P1;durP1;ratioP1;P2;durP2;ratioP2
50683;SDS011;36654;45.042;38.994;2023-11-21T00:00:16;7.18;;;5.13;;
50683;SDS011;36654;45.042;38.994;2023-11-21T00:02:43;7.47;;;4.72;;
50683;SDS011;36654;45.042;38.994;2023-11-21T00:05:11;7.53;;;4.22;;
50683;SDS011;36654;45.042;38.994;2023-11-21T00:07:39;7.40;;;4.70;;
50683;SDS011;36654;45.042;38.994;2023-11-21T00:10:06;7.75;;;4.72;;
50683;SDS011;36654;45.042;38.994;2023-11-21T00:12:33;7.78;;;4.75;;
50683;SDS011;36654;45.042;38.994;2023-11-21T00:15:02;10.00;;;5.85;;
50683;SDS011;36654;45.042;38.994;2023-11-21T00:17:30;9.55;;;5.75;;
50683;SDS011;36654;45.042;38.994;2023-11-21T00:19:56;8.77;;;6.00;;
50683;SDS011;36654;45.042;38.994;2023-11-21T00:22:21;8.82;;;5.53;;
50683;SDS011;36654;45.042;38.994;2023-11-21T00:24:47;9.55;;;5.28;;
50683;SDS011;36654;45.042;38.994;2023-11-21T00:27:13;7.20;;;5.07;;
50683;SDS011;36654;45.042;38.994;2023-11-21T00:29:39;9.52;;;4.85;;
50683;SDS011;36654;45.042;38.994;2023-11-21T00:32:05;8.30;;;5.30;;
50683;SDS011;36654;45.042;38.994;2023-11-21T00:34:31;7.93;;;4.85;;
50683;SDS011;36654;45.042;38.994;2023-11-21T00:36:58;6.28;;;4.30;;
50683;SDS011;36654;45.042;38.994;2023-11-21T00:39:24;7.05;;;4.13;;
50683;SDS011;36654;45.042;38.994;2023-11-21T00:41:52;9.70;;;4.15;;
50683;SDS011;36654;45.042;38.994;2023-11-21T00:44:18;5.45;;;4.15;;
50683;SDS011;36654;45.042;38.994;2023-11-21T00:46:43;8.32;;;3.92;;
50683;SDS011;36654;45.042;38.994;2023-11-21T00:49:09;7.47;;;4.25;;
50683;SDS011;36654;45.042;38.994;2023-11-21T00:51:34;5.25;;;3.60;;
50683;SDS011;36654;45.042;38.994;2023-11-21T00:54:01;5.78;;;4.05;;
50683;SDS011;36654;45.042;38.994;2023-11-21T00:56:27;6.70;;;4.60;;
50683;SDS011;36654;45.042;38.994;2023-11-21T00:58:53;7.57;;;4.60;;
50683;SDS011;36654;45.042;38.994;2023-11-21T01:01:19;6.32;;;3.80;;
50683;SDS011;36654;45.042;38.994;2023-11-21T01:03:48;7.55;;;4.53;;
50683;SDS011;36654;45.042;38.994;2023-11-21T01:06:14;5.57;;;3.85;;
50683;SDS011;36654;45.042;38.994;2023-11-21T01:08:45;7.00;;;4.80;;
50683;SDS011;36654;45.042;38.994;2023-11-21T01:11:11;7.65;;;4.50;;
50683;SDS011;36654;45.042;38.994;2023-11-21T01:13:40;6.40;;;4.13;;
50683;SDS011;36654;45.042;38.994;2023-11-21T01:16:07;7.20;;;4.40;;
50683;SDS011;36654;45.042;38.994;2023-11-21T01:18:34;6.40;;;4.25;;
50683;SDS011;36654;45.042;38.994;2023-11-21T01:21:00;7.97;;;4.85;;
50683;SDS011;36654;45.042;38.994;2023-11-21T01:23:26;8.10;;;5.20;;
50683;SDS011;36654;45.042;38.994;2023-11-21T01:25:52;7.53;;;4.90;;
50683;SDS011;36654;45.042;38.994;2023-11-21T01:28:18;8.73;;;5.38;;
50683;SDS011;36654;45.042;38.994;2023-11-21T01:30:44;9.48;;;5.05;;
50683;SDS011;36654;45.042;38.994;2023-11-21T01:33:11;8.45;;;5.60;;
50683;SDS011;36654;45.042;38.994;2023-11-21T01:35:36;8.13;;;5.13;;
50683;SDS011;36654;45.042;38.994;2023-11-21T01:38:02;13.85;;;6.28;;
50683;SDS011;36654;45.042;38.994;2023-11-21T01:40:29;10.82;;;5.03;;
50683;SDS011;36654;45.042;38.994;2023-11-21T01:42:55;10.68;;;5.28;;
50683;SDS011;36654;45.042;38.994;2023-11-21T01:45:22;8.38;;;5.18;;
50683;SDS011;36654;45.042;38.994;2023-11-21T01:47:50;6.20;;;4.28;;
50683;SDS011;36654;45.042;38.994;2023-11-21T01:50:16;7.45;;;4.22;;
50683;SDS011;36654;45.042;38.994;2023-11-21T01:52:46;8.07;;;4.30;;
50683;SDS011;36654;45.042;38.994;2023-11-21T01:55:12;8.90;;;4.30;;
50683;SDS011;36654;45.042;38.994;2023-11-21T01:57:43;6.50;;;4.45;;
50683;SDS011;36654;45.042;38.994;2023-11-21T02:00:09;9.00;;;4.80;;
50683;SDS011;36654;45.042;38.994;2023-11-21T02:02:43;6.65;;;4.28;;
50683;SDS011;36654;45.042;38.994;2023-11-21T02:05:16;7.68;;;4.43;;
50683;SDS011;36654;45.042;38.994;2023-11-21T02:07:43;6.25;;;4.07;;
50683;SDS011;36654;45.042;38.994;2023-11-21T02:10:10;8.07;;;4.68;;
50683;SDS011;36654;45.042;38.994;2023-11-21T02:12:47;8.85;;;5.38;;
50683;SDS011;36654;45.042;38.994;2023-11-21T02:15:15;10.13;;;5.38;;
50683;SDS011;36654;45.042;38.994;2023-11-21T02:17:45;9.50;;;6.10;;
50683;SDS011;36654;45.042;38.994;2023-11-21T02:20:16;11.98;;;7.43;;
50683;SDS011;36654;45.042;38.994;2023-11-21T02:22:43;10.10;;;5.80;;
50683;SDS011;36654;45.042;38.994;2023-11-21T02:25:26;11.35;;;6.88;;
50683;SDS011;36654;45.042;38.994;2023-11-21T02:27:53;12.20;;;7.32;;
50683;SDS011;36654;45.042;38.994;2023-11-21T02:30:20;12.82;;;7.57;;
50683;SDS011;36654;45.042;38.994;2023-11-21T02:32:49;15.20;;;7.57;;
50683;SDS011;36654;45.042;38.994;2023-11-21T02:35:18;12.05;;;7.18;;
50683;SDS011;36654;45.042;38.994;2023-11-21T02:37:46;13.88;;;7.93;;
50683;SDS011;36654;45.042;38.994;2023-11-21T02:40:12;15.90;;;7.97;;
50683;SDS011;36654;45.042;38.994;2023-11-21T02:42:39;13.18;;;8.40;;
50683;SDS011;36654;45.042;38.994;2023-11-21T02:45:06;15.95;;;9.43;;
50683;SDS011;36654;45.042;38.994;2023-11-21T02:47:32;14.10;;;8.45;;
50683;SDS011;36654;45.042;38.994;2023-11-21T02:49:59;15.73;;;9.40;;
50683;SDS011;36654;45.042;38.994;2023-11-21T02:52:25;17.02;;;9.70;;
50683;SDS011;36654;45.042;38.994;2023-11-21T02:54:51;13.45;;;8.63;;
50683;SDS011;36654;45.042;38.994;2023-11-21T02:57:16;16.00;;;8.73;;
50683;SDS011;36654;45.042;38.994;2023-11-21T02:59:42;13.75;;;8.20;;
50683;SDS011;36654;45.042;38.994;2023-11-21T03:02:08;13.70;;;8.10;;
50683;SDS011;36654;45.042;38.994;2023-11-21T03:04:34;14.77;;;8.18;;
50683;SDS011;36654;45.042;38.994;2023-11-21T03:07:00;13.07;;;7.60;;
50683;SDS011;36654;45.042;38.994;2023-11-21T03:09:25;14.60;;;7.72;;
50683;SDS011;36654;45.042;38.994;2023-11-21T03:11:55;14.60;;;8.88;;
50683;SDS011;36654;45.042;38.994;2023-11-21T03:14:21;13.73;;;8.77;;
50683;SDS011;36654;45.042;38.994;2023-11-21T03:16:47;15.95;;;8.38;;
50683;SDS011;36654;45.042;38.994;2023-11-21T03:19:14;14.02;;;7.45;;
50683;SDS011;36654;45.042;38.994;2023-11-21T03:21:40;13.77;;;8.05;;
50683;SDS011;36654;45.042;38.994;2023-11-21T03:24:05;12.70;;;7.85;;
50683;SDS011;36654;45.042;38.994;2023-11-21T03:26:32;13.13;;;6.90;;
50683;SDS011;36654;45.042;38.994;2023-11-21T03:28:58;14.60;;;7.75;;
50683;SDS011;36654;45.042;38.994;2023-11-21T03:31:24;13.18;;;7.45;;
50683;SDS011;36654;45.042;38.994;2023-11-21T03:33:49;12.85;;;8.38;;
50683;SDS011;36654;45.042;38.994;2023-11-21T03:36:15;11.75;;;6.53;;
50683;SDS011;36654;45.042;38.994;2023-11-21T03:38:41;14.52;;;8.05;;
50683;SDS011;36654;45.042;38.994;2023-11-21T03:41:07;12.73;;;6.88;;
50683;SDS011;36654;45.042;38.994;2023-11-21T03:43:35;12.65;;;7.20;;
50683;SDS011;36654;45.042;38.994;2023-11-21T03:46:01;11.20;;;6.15;;
50683;SDS011;36654;45.042;38.994;2023-11-21T03:48:27;11.38;;;6.30;;
50683;SDS011;36654;45.042;38.994;2023-11-21T03:50:53;10.88;;;6.68;;
50683;SDS011;36654;45.042;38.994;2023-11-21T03:53:19;10.95;;;6.70;;
50683;SDS011;36654;45.042;38.994;2023-11-21T03:55:44;10.57;;;6.25;;
50683;SDS011;36654;45.042;38.994;2023-11-21T03:58:10;11.88;;;6.68;;
50683;SDS011;36654;45.042;38.994;2023-11-21T04:00:36;12.32;;;7.05;;
50683;SDS011;36654;45.042;38.994;2023-11-21T04:03:01;12.48;;;7.32;;
50683;SDS011;36654;45.042;38.994;2023-11-21T04:05:27;10.23;;;6.32;;
50683;SDS011;36654;45.042;38.994;2023-11-21T04:07:53;10.40;;;5.65;;
50683;SDS011;36654;45.042;38.994;2023-11-21T04:10:18;9.98;;;5.65;;
50683;SDS011;36654;45.042;38.994;2023-11-21T04:12:44;12.85;;;6.05;;
50683;SDS011;36654;45.042;38.994;2023-11-21T04:15:10;10.10;;;6.18;;
50683;SDS011;36654;45.042;38.994;2023-11-21T04:17:37;11.57;;;7.30;;
50683;SDS011;36654;45.042;38.994;2023-11-21T04:20:06;11.45;;;7.35;;
50683;SDS011;36654;45.042;38.994;2023-11-21T04:22:41;13.75;;;7.00;;
50683;SDS011;36654;45.042;38.994;2023-11-21T04:25:12;13.13;;;7.60;;
50683;SDS011;36654;45.042;38.994;2023-11-21T04:27:39;13.93;;;8.18;;
50683;SDS011;36654;45.042;38.994;2023-11-21T04:30:06;14.30;;;8.55;;
50683;SDS011;36654;45.042;38.994;2023-11-21T04:32:33;15.35;;;7.60;;
50683;SDS011;36654;45.042;38.994;2023-11-21T04:34:58;14.98;;;8.77;;
50683;SDS011;36654;45.042;38.994;2023-11-21T04:37:24;13.10;;;7.78;;
50683;SDS011;36654;45.042;38.994;2023-11-21T04:39:50;19.75;;;10.07;;
50683;SDS011;36654;45.042;38.994;2023-11-21T04:42:15;14.20;;;8.95;;
50683;SDS011;36654;45.042;38.994;2023-11-21T04:44:44;20.98;;;8.77;;
50683;SDS011;36654;45.042;38.994;2023-11-21T04:47:09;17.08;;;9.25;;
50683;SDS011;36654;45.042;38.994;2023-11-21T04:49:36;18.27;;;10.38;;
50683;SDS011;36654;45.042;38.994;2023-11-21T04:52:04;16.48;;;9.13;;
50683;SDS011;36654;45.042;38.994;2023-11-21T04:54:30;17.13;;;9.50;;
50683;SDS011;36654;45.042;38.994;2023-11-21T04:56:56;14.93;;;8.98;;
50683;SDS011;36654;45.042;38.994;2023-11-21T04:59:22;13.75;;;7.95;;
50683;SDS011;36654;45.042;38.994;2023-11-21T05:01:50;16.10;;;8.43;;
50683;SDS011;36654;45.042;38.994;2023-11-21T05:04:16;14.90;;;8.40;;
50683;SDS011;36654;45.042;38.994;2023-11-21T05:06:44;16.27;;;9.00;;
50683;SDS011;36654;45.042;38.994;2023-11-21T05:09:11;19.33;;;11.23;;
50683;SDS011;36654;45.042;38.994;2023-11-21T05:11:37;17.17;;;9.90;;
50683;SDS011;36654;45.042;38.994;2023-11-21T05:14:06;19.40;;;9.73;;
50683;SDS011;36654;45.042;38.994;2023-11-21T05:16:31;18.00;;;10.25;;
50683;SDS011;36654;45.042;38.994;2023-11-21T05:18:57;17.08;;;9.88;;
50683;SDS011;36654;45.042;38.994;2023-11-21T05:21:28;14.75;;;8.88;;
50683;SDS011;36654;45.042;38.994;2023-11-21T05:23:57;19.85;;;10.20;;
50683;SDS011;36654;45.042;38.994;2023-11-21T05:26:23;19.15;;;10.88;;
50683;SDS011;36654;45.042;38.994;2023-11-21T05:28:49;17.17;;;10.43;;
50683;SDS011;36654;45.042;38.994;2023-11-21T05:31:15;20.75;;;11.25;;
50683;SDS011;36654;45.042;38.994;2023-11-21T05:33:41;22.85;;;11.50;;
50683;SDS011;36654;45.042;38.994;2023-11-21T05:36:07;15.02;;;9.82;;
50683;SDS011;36654;45.042;38.994;2023-11-21T05:38:33;17.90;;;10.35;;
50683;SDS011;36654;45.042;38.994;2023-11-21T05:41:00;16.58;;;9.82;;
50683;SDS011;36654;45.042;38.994;2023-11-21T05:43:26;17.50;;;9.40;;
50683;SDS011;36654;45.042;38.994;2023-11-21T05:45:53;14.85;;;9.48;;
50683;SDS011;36654;45.042;38.994;2023-11-21T05:48:19;18.98;;;10.68;;
50683;SDS011;36654;45.042;38.994;2023-11-21T05:50:45;18.73;;;11.00;;
50683;SDS011;36654;45.042;38.994;2023-11-21T05:53:10;17.17;;;9.60;;
50683;SDS011;36654;45.042;38.994;2023-11-21T05:55:36;18.48;;;10.35;;
50683;SDS011;36654;45.042;38.994;2023-11-21T05:58:02;19.48;;;11.35;;
50683;SDS011;36654;45.042;38.994;2023-11-21T06:00:28;18.08;;;9.88;;
50683;SDS011;36654;45.042;38.994;2023-11-21T06:02:53;18.80;;;11.35;;
50683;SDS011;36654;45.042;38.994;2023-11-21T06:05:21;19.60;;;11.65;;
50683;SDS011;36654;45.042;38.994;2023-11-21T06:07:51;18.00;;;12.27;;
50683;SDS011;36654;45.042;38.994;2023-11-21T06:10:23;22.23;;;12.05;;
50683;SDS011;36654;45.042;38.994;2023-11-21T06:12:49;20.13;;;11.45;;
50683;SDS011;36654;45.042;38.994;2023-11-21T06:15:15;18.77;;;10.25;;
50683;SDS011;36654;45.042;38.994;2023-11-21T06:17:41;18.63;;;10.85;;
50683;SDS011;36654;45.042;38.994;2023-11-21T06:20:10;20.85;;;10.93;;
50683;SDS011;36654;45.042;38.994;2023-11-21T06:22:40;20.90;;;12.52;;
50683;SDS011;36654;45.042;38.994;2023-11-21T06:25:07;19.40;;;11.82;;
50683;SDS011;36654;45.042;38.994;2023-11-21T06:27:34;21.77;;;11.57;;
50683;SDS011;36654;45.042;38.994;2023-11-21T06:30:03;21.90;;;12.00;;
50683;SDS011;36654;45.042;38.994;2023-11-21T06:32:29;19.10;;;11.50;;
50683;SDS011;36654;45.042;38.994;2023-11-21T06:34:55;19.10;;;10.57;;
50683;SDS011;36654;45.042;38.994;2023-11-21T06:37:25;17.23;;;10.60;;
50683;SDS011;36654;45.042;38.994;2023-11-21T06:39:52;18.50;;;11.27;;
50683;SDS011;36654;45.042;38.994;2023-11-21T06:42:18;25.98;;;14.23;;
50683;SDS011;36654;45.042;38.994;2023-11-21T06:44:47;19.48;;;12.18;;
50683;SDS011;36654;45.042;38.994;2023-11-21T06:47:13;19.10;;;11.98;;
50683;SDS011;36654;45.042;38.994;2023-11-21T06:49:39;17.38;;;10.48;;
50683;SDS011;36654;45.042;38.994;2023-11-21T06:52:06;20.33;;;11.68;;
50683;SDS011;36654;45.042;38.994;2023-11-21T06:54:31;20.88;;;12.52;;
50683;SDS011;36654;45.042;38.994;2023-11-21T06:56:58;17.83;;;10.90;;
50683;SDS011;36654;45.042;38.994;2023-11-21T06:59:28;25.70;;;12.77;;
50683;SDS011;36654;45.042;38.994;2023-11-21T07:01:54;21.60;;;12.57;;
50683;SDS011;36654;45.042;38.994;2023-11-21T07:04:19;20.80;;;11.77;;
50683;SDS011;36654;45.042;38.994;2023-11-21T07:06:45;21.10;;;12.25;;
50683;SDS011;36654;45.042;38.994;2023-11-21T07:09:11;19.92;;;11.43;;
50683;SDS011;36654;45.042;38.994;2023-11-21T07:11:37;19.30;;;12.15;;
50683;SDS011;36654;45.042;38.994;2023-11-21T07:14:03;20.02;;;11.88;;
50683;SDS011;36654;45.042;38.994;2023-11-21T07:16:35;23.25;;;12.48;;
50683;SDS011;36654;45.042;38.994;2023-11-21T07:19:04;26.85;;;14.13;;
50683;SDS011;36654;45.042;38.994;2023-11-21T07:21:31;22.20;;;12.00;;
50683;SDS011;36654;45.042;38.994;2023-11-21T07:23:58;21.80;;;12.77;;
50683;SDS011;36654;45.042;38.994;2023-11-21T07:26:26;23.13;;;11.73;;
50683;SDS011;36654;45.042;38.994;2023-11-21T07:28:52;23.73;;;12.85;;
50683;SDS011;36654;45.042;38.994;2023-11-21T07:31:18;22.58;;;11.93;;
50683;SDS011;36654;45.042;38.994;2023-11-21T07:33:44;21.35;;;12.23;;
50683;SDS011;36654;45.042;38.994;2023-11-21T07:36:12;21.67;;;11.68;;
50683;SDS011;36654;45.042;38.994;2023-11-21T07:38:38;20.88;;;11.98;;
50683;SDS011;36654;45.042;38.994;2023-11-21T07:41:05;17.73;;;10.65;;
50683;SDS011;36654;45.042;38.994;2023-11-21T07:43:33;19.77;;;10.75;;
50683;SDS011;36654;45.042;38.994;2023-11-21T07:46:03;15.80;;;10.50;;
50683;SDS011;36654;45.042;38.994;2023-11-21T07:48:30;19.95;;;10.60;;
50683;SDS011;36654;45.042;38.994;2023-11-21T07:50:59;15.88;;;9.88;;
50683;SDS011;36654;45.042;38.994;2023-11-21T07:53:26;15.13;;;8.43;;
50683;SDS011;36654;45.042;38.994;2023-11-21T07:55:54;15.93;;;8.35;;
50683;SDS011;36654;45.042;38.994;2023-11-21T07:58:20;16.75;;;7.88;;
50683;SDS011;36654;45.042;38.994;2023-11-21T08:00:46;16.17;;;8.30;;
50683;SDS011;36654;45.042;38.994;2023-11-21T08:03:15;14.82;;;8.43;;
50683;SDS011;36654;45.042;38.994;2023-11-21T08:05:41;17.83;;;8.05;;
50683;SDS011;36654;45.042;38.994;2023-11-21T08:08:07;15.02;;;7.57;;
50683;SDS011;36654;45.042;38.994;2023-11-21T08:10:33;17.65;;;8.85;;
50683;SDS011;36654;45.042;38.994;2023-11-21T08:13:00;13.63;;;8.15;;
50683;SDS011;36654;45.042;38.994;2023-11-21T08:15:27;15.23;;;7.93;;
50683;SDS011;36654;45.042;38.994;2023-11-21T08:17:52;12.88;;;8.20;;
50683;SDS011;36654;45.042;38.994;2023-11-21T08:20:18;16.95;;;8.55;;
50683;SDS011;36654;45.042;38.994;2023-11-21T08:22:44;11.88;;;7.63;;
50683;SDS011;36654;45.042;38.994;2023-11-21T08:25:10;12.63;;;7.55;;
50683;SDS011;36654;45.042;38.994;2023-11-21T08:27:36;14.60;;;8.32;;
50683;SDS011;36654;45.042;38.994;2023-11-21T08:30:02;13.98;;;8.65;;
50683;SDS011;36654;45.042;38.994;2023-11-21T08:32:29;17.73;;;10.52;;
50683;SDS011;36654;45.042;38.994;2023-11-21T08:34:58;18.60;;;10.55;;
50683;SDS011;36654;45.042;38.994;2023-11-21T08:37:26;18.30;;;10.70;;
50683;SDS011;36654;45.042;38.994;2023-11-21T08:39:52;15.77;;;10.70;;
50683;SDS011;36654;45.042;38.994;2023-11-21T08:42:18;17.17;;;10.55;;
50683;SDS011;36654;45.042;38.994;2023-11-21T08:44:44;18.25;;;11.98;;
50683;SDS011;36654;45.042;38.994;2023-11-21T08:47:11;16.88;;;10.55;;
50683;SDS011;36654;45.042;38.994;2023-11-21T08:49:37;16.63;;;9.38;;
50683;SDS011;36654;45.042;38.994;2023-11-21T08:52:03;15.20;;;8.25;;
50683;SDS011;36654;45.042;38.994;2023-11-21T08:54:30;14.13;;;9.02;;
50683;SDS011;36654;45.042;38.994;2023-11-21T08:56:56;14.95;;;9.13;;
50683;SDS011;36654;45.042;38.994;2023-11-21T08:59:23;17.63;;;9.57;;
50683;SDS011;36654;45.042;38.994;2023-11-21T09:01:52;15.80;;;9.05;;
50683;SDS011;36654;45.042;38.994;2023-11-21T09:04:17;16.80;;;10.68;;
50683;SDS011;36654;45.042;38.994;2023-11-21T09:06:43;18.30;;;10.90;;
50683;SDS011;36654;45.042;38.994;2023-11-21T09:09:09;18.45;;;11.43;;
50683;SDS011;36654;45.042;38.994;2023-11-21T09:11:35;15.60;;;10.40;;
50683;SDS011;36654;45.042;38.994;2023-11-21T09:14:02;16.40;;;11.05;;
50683;SDS011;36654;45.042;38.994;2023-11-21T09:16:31;14.05;;;9.35;;
50683;SDS011;36654;45.042;38.994;2023-11-21T09:18:57;15.50;;;9.98;;
50683;SDS011;36654;45.042;38.994;2023-11-21T09:21:23;15.07;;;10.23;;
50683;SDS011;36654;45.042;38.994;2023-11-21T09:23:50;13.43;;;9.90;;
50683;SDS011;36654;45.042;38.994;2023-11-21T09:26:16;16.42;;;10.57;;
50683;SDS011;36654;45.042;38.994;2023-11-21T09:28:45;15.18;;;9.80;;
50683;SDS011;36654;45.042;38.994;2023-11-21T09:31:14;16.55;;;9.70;;
50683;SDS011;36654;45.042;38.994;2023-11-21T09:33:42;15.75;;;10.55;;
50683;SDS011;36654;45.042;38.994;2023-11-21T09:36:11;18.00;;;10.43;;
50683;SDS011;36654;45.042;38.994;2023-11-21T09:38:41;17.45;;;10.52;;
50683;SDS011;36654;45.042;38.994;2023-11-21T09:41:11;15.27;;;10.63;;
50683;SDS011;36654;45.042;38.994;2023-11-21T09:43:46;20.23;;;10.50;;
50683;SDS011;36654;45.042;38.994;2023-11-21T09:46:15;16.10;;;10.50;;
50683;SDS011;36654;45.042;38.994;2023-11-21T09:48:48;20.00;;;10.98;;
50683;SDS011;36654;45.042;38.994;2023-11-21T09:51:18;19.40;;;10.43;;
50683;SDS011;36654;45.042;38.994;2023-11-21T09:53:47;19.35;;;10.95;;
50683;SDS011;36654;45.042;38.994;2023-11-21T09:56:17;17.02;;;10.68;;
50683;SDS011;36654;45.042;38.994;2023-11-21T09:58:50;18.02;;;10.48;;
50683;SDS011;36654;45.042;38.994;2023-11-21T10:01:17;19.55;;;11.77;;
50683;SDS011;36654;45.042;38.994;2023-11-21T10:03:43;21.92;;;11.60;;
50683;SDS011;36654;45.042;38.994;2023-11-21T10:06:09;19.02;;;13.00;;
50683;SDS011;36654;45.042;38.994;2023-11-21T10:08:39;15.20;;;10.27;;
50683;SDS011;36654;45.042;38.994;2023-11-21T10:11:05;21.02;;;12.13;;
50683;SDS011;36654;45.042;38.994;2023-11-21T10:13:36;19.58;;;12.57;;
50683;SDS011;36654;45.042;38.994;2023-11-21T10:16:03;20.48;;;12.30;;
50683;SDS011;36654;45.042;38.994;2023-11-21T10:18:32;20.02;;;11.80;;
50683;SDS011;36654;45.042;38.994;2023-11-21T10:20:59;21.35;;;11.95;;
50683;SDS011;36654;45.042;38.994;2023-11-21T10:23:26;20.75;;;12.95;;
50683;SDS011;36654;45.042;38.994;2023-11-21T10:25:52;22.05;;;12.77;;
50683;SDS011;36654;45.042;38.994;2023-11-21T10:28:20;17.85;;;11.52;;
50683;SDS011;36654;45.042;38.994;2023-11-21T10:30:46;19.17;;;11.32;;
50683;SDS011;36654;45.042;38.994;2023-11-21T10:33:12;17.23;;;11.27;;
50683;SDS011;36654;45.042;38.994;2023-11-21T10:35:38;21.35;;;11.48;;
50683;SDS011;36654;45.042;38.994;2023-11-21T10:38:07;21.77;;;13.65;;
50683;SDS011;36654;45.042;38.994;2023-11-21T10:40:39;21.00;;;13.35;;
50683;SDS011;36654;45.042;38.994;2023-11-21T10:43:10;19.58;;;11.68;;
50683;SDS011;36654;45.042;38.994;2023-11-21T10:45:37;15.85;;;9.63;;
50683;SDS011;36654;45.042;38.994;2023-11-21T10:48:06;12.52;;;8.13;;
50683;SDS011;36654;45.042;38.994;2023-11-21T10:50:33;12.20;;;7.20;;
50683;SDS011;36654;45.042;38.994;2023-11-21T10:53:05;11.43;;;5.90;;
50683;SDS011;36654;45.042;38.994;2023-11-21T10:55:31;11.30;;;6.65;;
50683;SDS011;36654;45.042;38.994;2023-11-21T10:57:59;9.52;;;5.93;;
50683;SDS011;36654;45.042;38.994;2023-11-21T11:00:30;12.95;;;6.30;;
50683;SDS011;36654;45.042;38.994;2023-11-21T11:02:57;11.43;;;6.50;;
50683;SDS011;36654;45.042;38.994;2023-11-21T11:05:24;9.52;;;6.07;;
50683;SDS011;36654;45.042;38.994;2023-11-21T11:08:03;9.07;;;6.47;;
50683;SDS011;36654;45.042;38.994;2023-11-21T11:10:30;10.15;;;6.38;;
50683;SDS011;36654;45.042;38.994;2023-11-21T11:12:57;11.88;;;6.55;;
50683;SDS011;36654;45.042;38.994;2023-11-21T11:15:24;14.50;;;8.00;;
50683;SDS011;36654;45.042;38.994;2023-11-21T11:17:51;14.07;;;7.75;;
50683;SDS011;36654;45.042;38.994;2023-11-21T11:20:17;15.40;;;9.38;;
50683;SDS011;36654;45.042;38.994;2023-11-21T11:28:58;15.95;;;8.80;;
50683;SDS011;36654;45.042;38.994;2023-11-21T11:34:13;17.50;;;9.23;;
50683;SDS011;36654;45.042;38.994;2023-11-21T11:37:16;14.75;;;9.07;;
50683;SDS011;36654;45.042;38.994;2023-11-21T11:39:43;12.57;;;8.77;;
50683;SDS011;36654;45.042;38.994;2023-11-21T11:42:11;10.73;;;7.32;;
50683;SDS011;36654;45.042;38.994;2023-11-21T11:47:24;16.38;;;7.97;;
50683;SDS011;36654;45.042;38.994;2023-11-21T11:50:10;13.90;;;8.57;;
50683;SDS011;36654;45.042;38.994;2023-11-21T11:52:51;16.00;;;9.05;;
50683;SDS011;36654;45.042;38.994;2023-11-21T11:55:19;13.82;;;7.80;;
50683;SDS011;36654;45.042;38.994;2023-11-21T11:57:47;12.73;;;7.78;;
50683;SDS011;36654;45.042;38.994;2023-11-21T12:05:27;16.70;;;9.02;;
50683;SDS011;36654;45.042;38.994;2023-11-21T12:07:56;16.83;;;10.05;;
50683;SDS011;36654;45.042;38.994;2023-11-21T12:10:29;15.82;;;9.73;;
50683;SDS011;36654;45.042;38.994;2023-11-21T12:13:03;17.38;;;9.43;;
50683;SDS011;36654;45.042;38.994;2023-11-21T12:15:33;18.65;;;10.07;;
50683;SDS011;36654;45.042;38.994;2023-11-21T12:18:00;18.77;;;9.45;;
50683;SDS011;36654;45.042;38.994;2023-11-21T12:20:26;18.98;;;11.70;;
50683;SDS011;36654;45.042;38.994;2023-11-21T12:22:59;17.75;;;9.32;;
50683;SDS011;36654;45.042;38.994;2023-11-21T12:25:26;16.30;;;9.15;;
50683;SDS011;36654;45.042;38.994;2023-11-21T12:28:00;21.67;;;10.93;;
50683;SDS011;36654;45.042;38.994;2023-11-21T12:30:28;19.23;;;11.10;;
50683;SDS011;36654;45.042;38.994;2023-11-21T12:32:57;16.67;;;8.57;;
50683;SDS011;36654;45.042;38.994;2023-11-21T12:37:52;18.83;;;9.48;;
50683;SDS011;36654;45.042;38.994;2023-11-21T12:40:20;19.55;;;9.57;;
50683;SDS011;36654;45.042;38.994;2023-11-21T12:42:51;18.75;;;9.95;;
50683;SDS011;36654;45.042;38.994;2023-11-21T12:45:23;19.25;;;10.75;;
50683;SDS011;36654;45.042;38.994;2023-11-21T12:47:57;17.08;;;9.93;;
50683;SDS011;36654;45.042;38.994;2023-11-21T12:50:25;18.08;;;9.93;;
50683;SDS011;36654;45.042;38.994;2023-11-21T12:53:03;18.63;;;9.85;;
50683;SDS011;36654;45.042;38.994;2023-11-21T12:55:31;17.55;;;9.38;;
50683;SDS011;36654;45.042;38.994;2023-11-21T12:57:59;19.50;;;10.80;;
50683;SDS011;36654;45.042;38.994;2023-11-21T13:00:35;23.08;;;11.18;;
50683;SDS011;36654;45.042;38.994;2023-11-21T13:03:04;23.20;;;11.80;;
50683;SDS011;36654;45.042;38.994;2023-11-21T13:05:33;18.10;;;10.90;;
50683;SDS011;36654;45.042;38.994;2023-11-21T13:08:03;23.00;;;10.68;;
50683;SDS011;36654;45.042;38.994;2023-11-21T13:10:32;20.77;;;10.38;;
50683;SDS011;36654;45.042;38.994;2023-11-21T13:13:01;23.90;;;10.95;;
50683;SDS011;36654;45.042;38.994;2023-11-21T13:15:39;22.77;;;11.90;;
50683;SDS011;36654;45.042;38.994;2023-11-21T13:18:08;23.92;;;12.57;;
50683;SDS011;36654;45.042;38.994;2023-11-21T13:20:36;22.92;;;11.65;;
50683;SDS011;36654;45.042;38.994;2023-11-21T13:23:06;20.58;;;12.25;;
50683;SDS011;36654;45.042;38.994;2023-11-21T13:25:33;20.75;;;12.13;;
50683;SDS011;36654;45.042;38.994;2023-11-21T13:27:59;21.90;;;11.35;;
50683;SDS011;36654;45.042;38.994;2023-11-21T13:30:28;21.95;;;11.38;;
50683;SDS011;36654;45.042;38.994;2023-11-21T13:33:01;21.42;;;11.75;;
50683;SDS011;36654;45.042;38.994;2023-11-21T13:35:35;21.98;;;12.00;;
50683;SDS011;36654;45.042;38.994;2023-11-21T13:38:12;22.55;;;11.93;;
50683;SDS011;36654;45.042;38.994;2023-11-21T13:40:42;20.55;;;10.73;;
50683;SDS011;36654;45.042;38.994;2023-11-21T13:43:14;22.20;;;11.88;;
50683;SDS011;36654;45.042;38.994;2023-11-21T13:45:42;19.08;;;10.48;;
50683;SDS011;36654;45.042;38.994;2023-11-21T13:48:09;20.13;;;11.43;;
50683;SDS011;36654;45.042;38.994;2023-11-21T13:50:36;17.33;;;10.07;;
50683;SDS011;36654;45.042;38.994;2023-11-21T13:53:02;15.25;;;9.77;;
50683;SDS011;36654;45.042;38.994;2023-11-21T13:55:34;16.90;;;9.48;;
50683;SDS011;36654;45.042;38.994;2023-11-21T13:58:01;19.13;;;10.60;;
50683;SDS011;36654;45.042;38.994;2023-11-21T14:00:27;15.30;;;9.60;;
50683;SDS011;36654;45.042;38.994;2023-11-21T14:03:07;15.55;;;9.10;;
50683;SDS011;36654;45.042;38.994;2023-11-21T14:05:42;15.35;;;9.35;;
50683;SDS011;36654;45.042;38.994;2023-11-21T14:08:09;14.43;;;8.30;;
50683;SDS011;36654;45.042;38.994;2023-11-21T14:10:37;15.90;;;8.57;;
50683;SDS011;36654;45.042;38.994;2023-11-21T14:13:11;13.73;;;7.65;;
50683;SDS011;36654;45.042;38.994;2023-11-21T14:15:38;12.80;;;7.70;;
50683;SDS011;36654;45.042;38.994;2023-11-21T14:18:08;14.23;;;8.20;;
50683;SDS011;36654;45.042;38.994;2023-11-21T14:20:39;13.30;;;8.07;;
50683;SDS011;36654;45.042;38.994;2023-11-21T14:23:07;13.23;;;7.57;;
50683;SDS011;36654;45.042;38.994;2023-11-21T14:25:36;13.35;;;8.60;;
50683;SDS011;36654;45.042;38.994;2023-11-21T14:28:04;13.10;;;7.30;;
50683;SDS011;36654;45.042;38.994;2023-11-21T14:30:31;14.80;;;7.68;;
50683;SDS011;36654;45.042;38.994;2023-11-21T14:33:00;13.50;;;8.15;;
50683;SDS011;36654;45.042;38.994;2023-11-21T14:35:27;13.85;;;7.38;;
50683;SDS011;36654;45.042;38.994;2023-11-21T14:37:53;12.73;;;7.60;;
50683;SDS011;36654;45.042;38.994;2023-11-21T14:40:19;13.80;;;6.70;;